Time;durP1;ratioP1;P1;durP2;ratioP2;P2;SDS_P1;SDS_P2;PMS_P1;PMS_P2;Temp;Humidity;BMP_temperature;BMP_pressure;BME280_temperature;BME280_humidity;BME280_pressure;Samples;Min_cycle;Max_cycle;Signal;HPM_P1;HPM_P2
2022/01/12 00:01:20;;;;;;;96.82;39.97;;;3.50;99.90;;;;;;5005216;28;20045;-72
2022/01/12 00:03:46;;;;;;;92.18;37.85;;;3.50;99.90;;;;;;5004377;28;20057;-72
2022/01/12 00:06:13;;;;;;;82.38;35.08;;;3.50;99.90;;;;;;4997296;28;20042;-72
2022/01/12 00:08:39;;;;;;;98.00;38.60;;;3.50;99.90;;;;;;4995273;28;20054;-72
2022/01/12 00:11:05;;;;;;;90.45;37.58;;;3.50;99.90;;;;;;4997636;28;20592;-73
2022/01/12 00:13:34;;;;;;;104.50;38.05;;;3.50;99.90;;;;;;4998964;28;20046;-72
2022/01/12 00:16:01;;;;;;;108.18;40.28;;;3.50;99.90;;;;;;4999013;28;20076;-72
2022/01/12 00:18:28;;;;;;;113.60;41.33;;;3.50;99.90;;;;;;4998339;28;20042;-72
2022/01/12 00:20:54;;;;;;;121.05;42.35;;;3.50;99.90;;;;;;4999676;28;20045;-72
2022/01/12 00:23:20;;;;;;;109.45;41.05;;;3.50;99.90;;;;;;5002100;28;20050;-72
2022/01/12 00:25:59;;;;;;;120.45;43.35;;;3.50;99.90;;;;;;5002302;28;20481;-72
2022/01/12 00:33:55;;;;;;;149.35;43.90;;;3.50;99.90;;;;;;4995838;28;20058;-72
2022/01/12 00:36:21;;;;;;;138.40;41.17;;;3.50;99.90;;;;;;4999916;28;20523;-73
2022/01/12 00:38:47;;;;;;;173.63;49.05;;;3.60;99.90;;;;;;5007443;28;20069;-72
2022/01/12 00:41:17;;;;;;;169.30;48.08;;;3.60;99.90;;;;;;4999600;28;20507;-72
2022/01/12 00:43:45;;;;;;;181.88;50.00;;;3.50;99.90;;;;;;5001148;28;20042;-72
2022/01/12 00:46:13;;;;;;;167.38;48.47;;;3.60;99.90;;;;;;4999389;28;20034;-72
2022/01/12 00:48:38;;;;;;;179.63;47.30;;;3.60;99.90;;;;;;4998456;28;20068;-72
2022/01/12 00:51:04;;;;;;;182.23;48.42;;;3.60;99.90;;;;;;4998083;28;20047;-72
2022/01/12 00:53:30;;;;;;;170.38;45.28;;;3.60;99.90;;;;;;5001859;28;21233;-72
2022/01/12 00:55:56;;;;;;;156.07;44.45;;;3.60;99.90;;;;;;5002202;28;20116;-72
2022/01/12 00:58:22;;;;;;;202.10;50.92;;;3.60;99.90;;;;;;5029078;27;20042;-72
2022/01/12 01:00:47;;;;;;;160.35;45.72;;;5.10;99.90;;;;;;5000766;28;20054;-72
2022/01/12 01:03:14;;;;;;;182.90;47.95;;;3.80;99.90;;;;;;5000695;28;20396;-72
2022/01/12 01:05:40;;;;;;;160.52;44.42;;;4.40;99.90;;;;;;5034016;28;20522;-72
2022/01/12 01:08:07;;;;;;;182.90;50.75;;;3.60;99.90;;;;;;5001438;28;20050;-72
2022/01/12 01:13:06;;;;;;;203.70;47.47;;;3.60;99.90;;;;;;4996521;28;20054;-72
2022/01/12 01:26:22;;;;;;;234.48;52.10;;;3.70;99.90;;;;;;4998569;28;20484;-72
2022/01/12 01:28:47;;;;;;;263.67;54.63;;;3.70;99.90;;;;;;4998416;28;20046;-72
2022/01/12 01:31:13;;;;;;;217.20;50.63;;;3.60;99.90;;;;;;5004170;28;20052;-72
2022/01/12 01:33:39;;;;;;;199.93;46.33;;;3.70;99.90;;;;;;5000537;28;20176;-72
2022/01/12 01:36:04;;;;;;;258.17;53.28;;;3.70;99.90;;;;;;5000122;28;20042;-72
2022/01/12 01:38:30;;;;;;;182.68;41.28;;;3.70;99.90;;;;;;4997145;28;20136;-72
2022/01/12 01:40:56;;;;;;;374.33;67.50;;;3.60;99.90;;;;;;5002937;28;20050;-72
2022/01/12 01:54:13;;;;;;;221.60;49.40;;;3.60;99.90;;;;;;5002081;28;20077;-72
2022/01/12 01:56:39;;;;;;;314.15;58.83;;;3.70;99.90;;;;;;4998075;28;20049;-72
2022/01/12 01:59:05;;;;;;;350.42;60.92;;;3.60;99.90;;;;;;5000501;28;20124;-72
2022/01/12 02:01:31;;;;;;;305.30;56.25;;;3.60;99.90;;;;;;5002370;28;20054;-72
2022/01/12 02:04:01;;;;;;;172.00;39.40;;;3.80;99.90;;;;;;4995492;28;20060;-72
2022/01/12 02:06:28;;;;;;;258.00;47.75;;;3.70;99.90;;;;;;4996662;28;20507;-73
2022/01/12 02:08:54;;;;;;;258.95;50.00;;;3.60;99.90;;;;;;5002104;28;20057;-72
2022/01/12 02:11:29;;;;;;;229.13;48.47;;;3.90;99.90;;;;;;5025583;27;20402;-72
2022/01/12 02:13:55;;;;;;;270.30;49.95;;;3.60;99.90;;;;;;5001750;28;20047;-72
2022/01/12 02:16:28;;;;;;;179.15;40.30;;;3.60;99.90;;;;;;4998921;28;20053;-72
2022/01/12 02:19:12;;;;;;;284.45;52.72;;;3.70;99.90;;;;;;4997342;28;20106;-72
2022/01/12 02:35:48;;;;;;;321.73;57.40;;;3.70;99.90;;;;;;4998726;28;20687;-72
2022/01/12 02:40:59;;;;;;;467.98;68.85;;;3.70;99.90;;;;;;4998612;28;20049;-72
2022/01/12 02:50:34;;;;;;;430.52;70.03;;;3.70;99.90;;;;;;5030567;27;20058;-72
2022/01/12 02:54:29;;;;;;;326.15;61.50;;;3.80;99.90;;;;;;4998138;28;20065;-72
2022/01/12 02:56:55;;;;;;;950.50;142.73;;;3.80;99.90;;;;;;5002860;28;20042;-72
2022/01/12 02:59:21;;;;;;;224.00;48.92;;;3.80;99.90;;;;;;4996885;28;20108;-72
2022/01/12 03:02:07;;;;;;;308.67;56.42;;;3.80;99.90;;;;;;4994788;28;20049;-72
2022/01/12 03:04:35;;;;;;;297.23;58.95;;;3.80;99.90;;;;;;4995957;28;20050;-72
2022/01/12 03:07:07;;;;;;;166.23;43.38;;;3.80;99.90;;;;;;5001134;28;20037;-72
2022/01/12 03:09:32;;;;;;;257.02;55.35;;;3.80;99.90;;;;;;4994628;28;20084;-72
2022/01/12 03:11:58;;;;;;;345.95;58.90;;;3.80;99.90;;;;;;4993297;28;20074;-72
2022/01/12 03:14:23;;;;;;;285.88;58.53;;;3.80;99.90;;;;;;5000139;28;20042;-72
2022/01/12 03:16:49;;;;;;;226.18;52.83;;;3.80;99.90;;;;;;4992601;28;21534;-72
2022/01/12 03:19:14;;;;;;;215.35;49.72;;;3.80;99.90;;;;;;4999996;28;20157;-72
2022/01/12 03:21:40;;;;;;;334.52;62.53;;;3.80;99.90;;;;;;4997442;28;20057;-72
2022/01/12 03:24:07;;;;;;;331.13;60.95;;;3.80;99.90;;;;;;4997100;28;20145;-72
2022/01/12 03:26:36;;;;;;;241.20;51.00;;;3.80;99.90;;;;;;4993848;28;20042;-72
2022/01/12 03:29:02;;;;;;;213.70;47.17;;;3.80;99.90;;;;;;4998883;28;20034;-72
2022/01/12 03:31:31;;;;;;;252.82;56.50;;;3.80;99.90;;;;;;4995744;28;20393;-72
2022/01/12 03:34:08;;;;;;;262.65;55.92;;;3.80;99.90;;;;;;4995233;28;20054;-72
2022/01/12 03:36:54;;;;;;;222.20;51.80;;;3.80;99.90;;;;;;5001417;28;20092;-72
2022/01/12 03:39:20;;;;;;;276.77;55.63;;;3.80;99.90;;;;;;5008446;28;20136;-72
2022/01/12 03:41:46;;;;;;;225.30;51.08;;;3.80;99.90;;;;;;4996875;28;20092;-72
2022/01/12 03:44:13;;;;;;;161.23;41.20;;;3.80;99.90;;;;;;5026308;27;20054;-72
2022/01/12 03:46:51;;;;;;;193.10;48.05;;;3.90;99.90;;;;;;5000086;28;20129;-72
2022/01/12 03:49:18;;;;;;;297.40;59.58;;;3.70;99.90;;;;;;5000809;28;20418;-72
2022/01/12 03:51:45;;;;;;;411.10;64.55;;;3.70;99.90;;;;;;4999448;28;20070;-72
2022/01/12 03:54:11;;;;;;;445.58;69.93;;;3.70;99.90;;;;;;4996706;28;20046;-72
2022/01/12 03:56:37;;;;;;;467.23;65.00;;;3.70;99.90;;;;;;4999126;28;20042;-72
2022/01/12 03:59:03;;;;;;;359.02;54.33;;;3.60;99.90;;;;;;5006190;28;20083;-72
2022/01/12 04:01:29;;;;;;;642.90;82.25;;;3.60;99.90;;;;;;4995594;28;21041;-72
2022/01/12 04:04:21;;;;;;;373.08;45.67;;;3.60;99.90;;;;;;5000069;28;20061;-72
2022/01/12 04:09:27;;;;;;;301.15;47.58;;;3.50;99.90;;;;;;4996954;28;20509;-72
2022/01/12 04:11:53;;;;;;;600.00;76.63;;;3.50;99.90;;;;;;4990281;28;20133;-72
2022/01/12 04:14:18;;;;;;;649.83;77.07;;;3.50;99.90;;;;;;4995761;28;20094;-72
2022/01/12 04:16:45;;;;;;;722.25;83.80;;;3.50;99.90;;;;;;4997633;28;20103;-72
2022/01/12 04:19:11;;;;;;;263.42;44.30;;;3.40;99.90;;;;;;4990655;28;20497;-72
2022/01/12 04:21:43;;;;;;;604.63;70.93;;;3.40;99.90;;;;;;4992170;28;20473;-72
2022/01/12 04:24:09;;;;;;;390.55;49.45;;;3.40;99.90;;;;;;5003768;28;20053;-72
2022/01/12 04:26:34;;;;;;;538.90;71.35;;;3.40;99.90;;;;;;5012483;28;20469;-72
2022/01/12 04:29:00;;;;;;;576.58;65.82;;;3.40;99.90;;;;;;5000115;28;20046;-72
2022/01/12 04:31:25;;;;;;;600.10;73.70;;;3.40;99.90;;;;;;4998363;28;20456;-72
2022/01/12 04:33:51;;;;;;;376.75;49.25;;;3.40;99.90;;;;;;5002071;28;20046;-72
2022/01/12 04:36:17;;;;;;;543.67;61.40;;;3.30;99.90;;;;;;4998241;28;20045;-72
2022/01/12 04:38:44;;;;;;;447.92;49.92;;;3.30;99.90;;;;;;5002373;28;20107;-72
2022/01/12 04:41:10;;;;;;;366.20;43.35;;;3.30;99.90;;;;;;5000791;28;20046;-72
2022/01/12 04:43:38;;;;;;;354.67;41.58;;;3.30;99.90;;;;;;5006709;28;20048;-72
2022/01/12 04:48:38;;;;;;;372.70;39.47;;;3.30;99.90;;;;;;5004039;28;20045;-72
2022/01/12 04:51:04;;;;;;;162.43;25.48;;;3.20;99.90;;;;;;5000811;28;20050;-72
2022/01/12 04:53:31;;;;;;;160.73;26.70;;;3.20;99.90;;;;;;5000260;28;20046;-72
2022/01/12 04:55:58;;;;;;;156.50;26.27;;;3.10;99.90;;;;;;5002382;28;20046;-72
2022/01/12 04:58:24;;;;;;;217.13;29.58;;;3.10;99.90;;;;;;5009954;28;20117;-72
2022/01/12 05:00:52;;;;;;;307.17;36.30;;;3.10;99.90;;;;;;5003039;28;20038;-72
2022/01/12 05:13:59;;;;;;;219.57;29.40;;;3.10;99.90;;;;;;5001900;28;20073;-72
2022/01/12 05:16:25;;;;;;;273.77;33.55;;;3.00;99.90;;;;;;5001515;28;20102;-72
2022/01/12 05:18:52;;;;;;;149.73;25.88;;;3.00;99.90;;;;;;5002950;28;20046;-72
2022/01/12 05:21:20;;;;;;;218.68;32.67;;;3.00;99.90;;;;;;4997514;28;20099;-72
2022/01/12 05:23:46;;;;;;;169.40;30.45;;;3.00;99.90;;;;;;5002424;28;20049;-72
2022/01/12 05:26:12;;;;;;;365.77;41.85;;;2.90;99.90;;;;;;5003656;28;20120;-72
2022/01/12 05:28:39;;;;;;;280.45;33.15;;;2.90;99.90;;;;;;4998734;28;20171;-72
2022/01/12 05:31:06;;;;;;;216.48;29.83;;;2.90;99.90;;;;;;5001262;28;20129;-72
2022/01/12 05:33:32;;;;;;;236.65;33.72;;;2.90;99.90;;;;;;5002306;28;20053;-72
2022/01/12 05:35:59;;;;;;;272.50;35.25;;;2.90;99.90;;;;;;4996738;28;20053;-72
2022/01/12 05:38:26;;;;;;;136.27;26.73;;;2.80;99.90;;;;;;4992200;28;20066;-72
2022/01/12 05:40:55;;;;;;;143.13;25.95;;;2.80;99.90;;;;;;4993521;28;20044;-72
2022/01/12 05:43:25;;;;;;;120.25;25.15;;;2.80;99.90;;;;;;5012067;28;20068;-72
2022/01/12 05:45:52;;;;;;;196.73;27.73;;;2.80;99.90;;;;;;5002202;28;20042;-72
2022/01/12 05:50:48;;;;;;;149.68;26.67;;;2.80;99.90;;;;;;5028541;27;20056;-72
2022/01/12 05:53:15;;;;;;;153.65;27.15;;;2.70;99.90;;;;;;4994332;28;20073;-72
2022/01/12 05:55:41;;;;;;;138.30;25.15;;;2.70;99.90;;;;;;4996856;28;20114;-71
2022/01/12 05:58:06;;;;;;;168.13;30.13;;;2.70;99.90;;;;;;4999901;28;20163;-72
2022/01/12 06:00:32;;;;;;;159.63;24.50;;;2.70;99.90;;;;;;4997989;28;20046;-72
2022/01/12 06:02:58;;;;;;;158.50;22.65;;;2.70;99.90;;;;;;5002645;28;20425;-72
2022/01/12 06:05:24;;;;;;;178.43;25.95;;;2.70;99.90;;;;;;5000874;28;20392;-72
2022/01/12 06:07:51;;;;;;;164.68;24.63;;;2.60;99.90;;;;;;5003113;28;20042;-72
2022/01/12 06:10:18;;;;;;;235.65;26.67;;;2.60;99.90;;;;;;4996933;28;20042;-72
2022/01/12 06:12:44;;;;;;;149.77;25.05;;;2.60;99.90;;;;;;4993763;28;20049;-72
2022/01/12 06:15:11;;;;;;;137.73;20.05;;;2.60;99.90;;;;;;5001857;28;20033;-72
2022/01/12 06:17:37;;;;;;;152.20;22.23;;;2.60;99.90;;;;;;5000805;28;20053;-71
2022/01/12 06:20:06;;;;;;;72.68;17.73;;;2.50;99.90;;;;;;5000135;28;20034;-72
2022/01/12 06:22:32;;;;;;;163.73;22.42;;;2.50;99.90;;;;;;5004398;28;20862;-71
2022/01/12 06:24:59;;;;;;;69.22;17.33;;;2.50;99.90;;;;;;5025596;28;20060;-72
2022/01/12 06:27:30;;;;;;;53.53;15.50;;;2.50;99.90;;;;;;5004924;28;20050;-71
2022/01/12 06:31:10;;;;;;;111.82;21.50;;;2.50;99.90;;;;;;4999015;28;20045;-71
2022/01/12 06:32:51;;;;;;;136.60;19.17;;;2.50;99.90;;;;;;4995846;28;20149;-72
2022/01/12 06:35:16;;;;;;;125.15;19.88;;;2.50;99.90;;;;;;4998059;28;20065;-71
2022/01/12 06:37:42;;;;;;;61.92;16.48;;;2.50;99.90;;;;;;5000932;28;20126;-71
2022/01/12 06:40:08;;;;;;;37.30;14.18;;;2.40;99.90;;;;;;5002157;28;20045;-71
2022/01/12 06:42:34;;;;;;;80.85;17.38;;;2.40;99.90;;;;;;5011307;28;21464;-73
2022/01/12 06:45:00;;;;;;;57.53;15.40;;;2.40;99.90;;;;;;4999326;28;20046;-73
2022/01/12 06:47:25;;;;;;;67.93;17.02;;;2.90;99.90;;;;;;4999876;28;20472;-73
2022/01/12 06:49:51;;;;;;;83.75;17.65;;;2.40;99.90;;;;;;4997372;28;20042;-73
2022/01/12 06:52:17;;;;;;;51.13;17.63;;;2.40;99.90;;;;;;4993377;28;20137;-73
2022/01/12 06:54:42;;;;;;;74.22;18.67;;;2.40;99.90;;;;;;5002578;28;20042;-73
2022/01/12 06:57:08;;;;;;;49.22;14.52;;;2.40;99.90;;;;;;4999016;28;20101;-74
2022/01/12 06:59:34;;;;;;;46.97;14.43;;;2.40;99.90;;;;;;5001876;28;20041;-73
2022/01/12 07:01:59;;;;;;;96.45;19.05;;;2.40;99.90;;;;;;4996679;28;20053;-74
2022/01/12 07:04:25;;;;;;;105.75;18.95;;;2.60;99.90;;;;;;5032019;28;20060;-73
2022/01/12 07:06:51;;;;;;;103.18;18.05;;;2.40;99.90;;;;;;4999756;28;20034;-73
2022/01/12 07:09:16;;;;;;;144.90;21.83;;;2.40;99.90;;;;;;4997929;28;20050;-73
2022/01/12 07:11:42;;;;;;;92.75;19.02;;;2.40;99.90;;;;;;5002186;28;20120;-73
2022/01/12 07:14:08;;;;;;;102.35;21.40;;;2.40;99.90;;;;;;5001257;28;20060;-72
2022/01/12 07:16:33;;;;;;;99.60;20.30;;;2.40;99.90;;;;;;5003557;28;20046;-74
2022/01/12 07:18:59;;;;;;;72.10;18.40;;;2.40;99.90;;;;;;5000046;28;20494;-72
2022/01/12 07:21:26;;;;;;;98.53;21.08;;;2.40;99.90;;;;;;5025894;27;20042;-74
2022/01/12 07:23:54;;;;;;;66.82;17.67;;;2.40;99.90;;;;;;5000724;28;20118;-72
2022/01/12 07:26:21;;;;;;;122.75;21.80;;;2.40;99.90;;;;;;5005789;28;20046;-72
2022/01/12 07:28:46;;;;;;;128.30;20.00;;;2.40;99.90;;;;;;5001598;28;20044;-73
2022/01/12 07:31:12;;;;;;;68.25;15.65;;;2.40;99.90;;;;;;4995655;28;20062;-72
2022/01/12 07:33:38;;;;;;;70.25;16.65;;;2.40;99.90;;;;;;5000093;28;20058;-75
2022/01/12 07:36:03;;;;;;;85.70;20.20;;;2.40;99.90;;;;;;5022423;28;20104;-73
2022/01/12 07:38:29;;;;;;;67.38;15.65;;;2.40;99.90;;;;;;5001611;28;20114;-74
2022/01/12 07:40:55;;;;;;;248.13;27.60;;;2.40;99.90;;;;;;5000046;28;20095;-73
2022/01/12 07:43:20;;;;;;;199.57;23.70;;;2.40;99.90;;;;;;5024003;27;20050;-73
2022/01/12 07:45:46;;;;;;;200.60;21.67;;;2.50;99.90;;;;;;4997534;28;20046;-73
2022/01/12 07:48:13;;;;;;;273.90;29.23;;;2.50;99.90;;;;;;4995072;28;20084;-72
2022/01/12 07:50:39;;;;;;;238.68;24.92;;;2.40;99.90;;;;;;4995597;28;20153;-73
2022/01/12 07:53:05;;;;;;;222.35;24.20;;;2.50;99.90;;;;;;4999118;28;20054;-73
2022/01/12 07:55:31;;;;;;;91.90;16.17;;;2.50;99.90;;;;;;5001189;28;20045;-73
2022/01/12 07:57:56;;;;;;;160.80;20.45;;;2.50;99.90;;;;;;5001522;28;20038;-73
2022/01/12 08:00:22;;;;;;;179.98;19.98;;;2.50;99.90;;;;;;5003563;28;20100;-73
2022/01/12 08:02:50;;;;;;;83.03;15.70;;;2.50;99.90;;;;;;5011369;28;20050;-73
2022/01/12 08:05:17;;;;;;;142.50;21.92;;;2.50;99.90;;;;;;5028759;27;20303;-73
2022/01/12 08:07:43;;;;;;;107.80;20.23;;;2.50;99.90;;;;;;5002059;28;20046;-73
2022/01/12 08:10:09;;;;;;;121.55;18.70;;;2.50;99.90;;;;;;5001791;28;20057;-73
2022/01/12 08:12:37;;;;;;;119.03;17.80;;;2.50;99.90;;;;;;4991551;28;20091;-73
2022/01/12 08:15:04;;;;;;;130.18;19.35;;;2.50;99.90;;;;;;5002368;28;20054;-73
2022/01/12 08:17:30;;;;;;;197.32;22.52;;;2.50;99.90;;;;;;5003924;28;20449;-73
2022/01/12 08:19:57;;;;;;;155.65;22.30;;;2.60;99.90;;;;;;4997692;28;20137;-73
2022/01/12 08:22:23;;;;;;;173.32;22.80;;;2.60;99.90;;;;;;4997504;28;20050;-73
2022/01/12 08:24:48;;;;;;;191.10;23.42;;;2.60;99.90;;;;;;5029174;27;20057;-73
2022/01/12 08:27:14;;;;;;;143.07;21.67;;;2.80;99.90;;;;;;4999068;28;20065;-73
2022/01/12 08:29:40;;;;;;;156.10;22.67;;;2.60;99.90;;;;;;5001199;28;20099;-73
2022/01/12 08:32:06;;;;;;;95.07;16.10;;;2.60;99.90;;;;;;5032889;27;20397;-73
2022/01/12 08:34:31;;;;;;;78.85;14.40;;;2.60;99.90;;;;;;5002933;28;20090;-73
2022/01/12 08:36:57;;;;;;;107.18;18.98;;;2.60;99.90;;;;;;5003191;28;20049;-73
2022/01/12 08:39:23;;;;;;;208.18;25.30;;;2.60;99.90;;;;;;5032488;27;20506;-72
2022/01/12 08:41:48;;;;;;;194.85;23.27;;;2.60;99.90;;;;;;5000413;28;20038;-73
2022/01/12 08:44:14;;;;;;;100.97;16.20;;;2.60;99.90;;;;;;5004496;28;20060;-73
2022/01/12 08:46:41;;;;;;;195.63;24.45;;;2.70;99.90;;;;;;5026936;27;20100;-73
2022/01/12 08:49:07;;;;;;;137.95;21.10;;;2.70;99.90;;;;;;5000378;28;20065;-73
2022/01/12 08:51:33;;;;;;;128.00;18.40;;;2.70;99.90;;;;;;4997844;28;20046;-73
2022/01/12 08:53:59;;;;;;;86.50;14.68;;;3.10;99.90;;;;;;5003680;28;20044;-73
2022/01/12 08:56:25;;;;;;;89.50;16.90;;;2.90;99.90;;;;;;4998155;28;20496;-73
2022/01/12 08:58:50;;;;;;;47.38;14.07;;;2.80;99.90;;;;;;5002442;28;20068;-73
2022/01/12 09:01:17;;;;;;;72.75;15.82;;;2.90;99.90;;;;;;5002385;28;20499;-73
2022/01/12 09:03:43;;;;;;;159.63;21.77;;;2.90;99.90;;;;;;5004804;28;20045;-73
2022/01/12 09:06:09;;;;;;;124.13;18.80;;;2.90;99.90;;;;;;4997477;28;20045;-72
2022/01/12 09:08:40;;;;;;;69.45;18.30;;;3.00;99.90;;;;;;4993420;28;20073;-72
2022/01/12 09:11:06;;;;;;;123.40;20.50;;;3.00;99.90;;;;;;4992958;28;20042;-74
2022/01/12 09:13:32;;;;;;;145.18;21.70;;;3.00;99.90;;;;;;4999978;28;20034;-79
2022/01/12 09:15:58;;;;;;;167.07;27.05;;;3.00;99.90;;;;;;5000801;28;20045;-73
2022/01/12 09:18:23;;;;;;;125.60;20.33;;;3.10;99.90;;;;;;4995142;28;20473;-71
2022/01/12 09:20:53;;;;;;;126.20;21.63;;;4.10;99.90;;;;;;5002625;28;20050;-73
2022/01/12 09:23:19;;;;;;;69.53;16.13;;;3.20;99.90;;;;;;5006430;28;20489;-74
2022/01/12 09:25:45;;;;;;;46.33;13.98;;;3.20;99.90;;;;;;5000690;28;20445;-69
2022/01/12 09:28:11;;;;;;;107.57;20.85;;;3.30;99.90;;;;;;4998745;28;20044;-72
2022/01/12 09:30:37;;;;;;;73.38;16.67;;;3.30;99.90;;;;;;5003443;28;20033;-72
2022/01/12 09:33:03;;;;;;;136.52;22.77;;;3.50;99.90;;;;;;5002161;28;20112;-72
2022/01/12 09:35:29;;;;;;;219.60;26.65;;;3.40;99.90;;;;;;4995125;28;20054;-72
2022/01/12 09:37:55;;;;;;;227.18;24.52;;;3.50;99.90;;;;;;4998658;28;20038;-72
2022/01/12 09:40:21;;;;;;;210.38;20.55;;;3.50;99.90;;;;;;5020722;28;20046;-72
2022/01/12 09:42:48;;;;;;;163.27;18.70;;;3.50;99.90;;;;;;5009007;28;20053;-72
2022/01/12 09:45:16;;;;;;;135.32;17.88;;;3.60;99.90;;;;;;4999096;28;20049;-72
2022/01/12 09:47:44;;;;;;;137.20;19.38;;;3.60;99.90;;;;;;4997314;28;20057;-72
2022/01/12 09:50:12;;;;;;;142.68;19.50;;;3.60;99.90;;;;;;4997683;28;20043;-72
2022/01/12 09:52:38;;;;;;;108.57;14.35;;;3.60;99.90;;;;;;4987587;28;20056;-72
2022/01/12 09:55:05;;;;;;;102.30;17.42;;;3.60;99.90;;;;;;4977774;28;20092;-72
2022/01/12 09:57:30;;;;;;;123.00;16.58;;;3.70;99.90;;;;;;5001195;28;20131;-72
2022/01/12 09:59:56;;;;;;;92.78;15.13;;;3.70;99.90;;;;;;4989937;28;20141;-72
2022/01/12 10:02:22;;;;;;;120.50;15.93;;;3.70;99.90;;;;;;4981015;28;20127;-70
2022/01/12 10:04:59;;;;;;;98.65;15.00;;;3.70;99.90;;;;;;4983092;28;20050;-70
2022/01/12 10:07:25;;;;;;;121.65;17.38;;;3.80;99.90;;;;;;4973006;28;20074;-70
2022/01/12 10:09:54;;;;;;;139.13;17.15;;;3.80;99.90;;;;;;4974833;28;20054;-70
2022/01/12 10:12:24;;;;;;;101.60;14.10;;;3.80;99.90;;;;;;4984580;28;20121;-70
2022/01/12 10:14:52;;;;;;;92.68;14.13;;;3.80;99.90;;;;;;4986362;28;20108;-70
2022/01/12 10:17:19;;;;;;;60.05;11.38;;;3.90;99.90;;;;;;4976826;28;20074;-70
2022/01/12 10:19:46;;;;;;;97.45;12.38;;;3.90;99.90;;;;;;4978330;28;20095;-70
2022/01/12 10:22:17;;;;;;;69.75;12.27;;;3.90;99.90;;;;;;4976118;28;20158;-70
2022/01/12 10:24:45;;;;;;;83.55;13.07;;;3.90;99.90;;;;;;4974568;28;20038;-70
2022/01/12 10:27:18;;;;;;;92.07;13.70;;;3.90;99.90;;;;;;4972937;28;20122;-70
2022/01/12 10:29:45;;;;;;;55.60;10.32;;;4.00;99.90;;;;;;4982121;28;20144;-70
2022/01/12 10:32:16;;;;;;;35.53;9.18;;;4.00;99.90;;;;;;4991598;28;20078;-70
2022/01/12 10:34:44;;;;;;;72.13;14.13;;;4.00;99.90;;;;;;4978486;28;20455;-70
2022/01/12 10:37:12;;;;;;;145.70;20.02;;;4.10;99.90;;;;;;4982814;28;20147;-70
2022/01/12 10:39:45;;;;;;;86.25;13.48;;;4.10;99.90;;;;;;4975572;28;20141;-70
2022/01/12 10:42:18;;;;;;;64.57;15.13;;;4.20;99.90;;;;;;4979603;28;20047;-70
2022/01/12 10:44:47;;;;;;;147.65;19.27;;;4.20;99.90;;;;;;4978219;28;20483;-70
2022/01/12 10:47:19;;;;;;;134.60;17.48;;;4.30;99.90;;;;;;4974926;28;20042;-71
2022/01/12 10:49:56;;;;;;;110.25;19.17;;;4.30;99.90;;;;;;5035421;28;20117;-70
2022/01/12 10:52:27;;;;;;;120.05;19.05;;;4.30;99.90;;;;;;4975162;28;20193;-71
2022/01/12 10:55:05;;;;;;;166.40;20.63;;;4.40;99.90;;;;;;4976983;28;20061;-71
2022/01/12 10:57:36;;;;;;;87.85;13.52;;;4.40;99.90;;;;;;4976762;28;20496;-72
2022/01/12 11:00:06;;;;;;;140.43;17.23;;;4.40;99.90;;;;;;4979135;28;20043;-72
2022/01/12 11:02:34;;;;;;;178.35;17.60;;;4.40;99.90;;;;;;4974075;28;20054;-72
2022/01/12 11:05:02;;;;;;;100.45;15.68;;;4.40;99.90;;;;;;4996126;28;20046;-71
2022/01/12 11:07:30;;;;;;;96.45;15.45;;;4.40;99.90;;;;;;4972554;28;20057;-72
2022/01/12 11:09:57;;;;;;;137.02;19.70;;;4.50;99.90;;;;;;4976851;28;20123;-71
2022/01/12 11:12:24;;;;;;;162.10;18.52;;;4.50;99.90;;;;;;4973226;28;20062;-72
2022/01/12 11:14:50;;;;;;;78.95;13.27;;;4.50;99.90;;;;;;4975733;28;20398;-73
2022/01/12 11:17:16;;;;;;;90.95;13.18;;;5.10;99.90;;;;;;4973795;28;20046;-73
2022/01/12 11:20:15;;;;;;;85.00;14.05;;;4.60;99.90;;;;;;4988361;28;20050;-73
2022/01/12 11:22:47;;;;;;;142.43;20.23;;;4.60;99.90;;;;;;4993962;28;20068;-73
2022/01/12 11:25:24;;;;;;;87.97;14.13;;;4.70;99.90;;;;;;4974891;28;20528;-74
2022/01/12 11:28:11;;;;;;;105.70;16.13;;;4.70;99.90;;;;;;4978736;28;20121;-74
2022/01/12 11:31:00;;;;;;;246.55;27.65;;;4.70;99.90;;;;;;4975717;28;20043;-73
2022/01/12 11:33:32;;;;;;;76.95;13.45;;;4.80;99.90;;;;;;4984081;28;20046;-73
2022/01/12 11:36:14;;;;;;;150.70;19.13;;;4.80;99.90;;;;;;4988099;28;20050;-73
2022/01/12 11:38:40;;;;;;;98.38;15.30;;;4.90;99.90;;;;;;4979177;28;20054;-74
2022/01/12 11:41:11;;;;;;;116.13;15.27;;;4.90;99.90;;;;;;4984690;28;20054;-74
2022/01/12 11:44:07;;;;;;;84.82;13.63;;;5.00;99.90;;;;;;4978249;28;20058;-74
2022/01/12 11:46:48;;;;;;;67.07;13.85;;;5.00;99.90;;;;;;4989395;28;20103;-74
2022/01/12 11:49:27;;;;;;;54.38;13.63;;;5.00;99.90;;;;;;4984393;28;20053;-74
2022/01/12 11:51:53;;;;;;;47.30;12.35;;;5.00;99.90;;;;;;5018193;28;20504;-75
2022/01/12 11:54:21;;;;;;;49.45;13.98;;;5.10;99.90;;;;;;4977983;28;20043;-74
2022/01/12 11:56:59;;;;;;;59.90;13.55;;;5.10;99.90;;;;;;4985894;28;20068;-75
2022/01/12 11:59:27;;;;;;;44.58;11.88;;;5.20;99.90;;;;;;4982171;28;20057;-75
2022/01/12 12:02:11;;;;;;;47.10;12.73;;;5.10;99.90;;;;;;4978203;28;20401;-74
2022/01/12 12:04:37;;;;;;;77.27;14.63;;;5.20;99.90;;;;;;4988864;28;20042;-75
2022/01/12 12:07:06;;;;;;;125.47;18.65;;;5.20;99.90;;;;;;4998666;28;20195;-75
2022/01/12 12:09:53;;;;;;;63.88;12.23;;;5.30;99.90;;;;;;4974958;28;20057;-75
2022/01/12 12:12:26;;;;;;;73.75;12.73;;;5.30;99.90;;;;;;4984681;28;20080;-74
2022/01/12 12:14:57;;;;;;;61.17;11.73;;;5.30;99.90;;;;;;4980355;28;20493;-75
2022/01/12 12:17:25;;;;;;;70.15;13.57;;;5.30;99.90;;;;;;4985294;28;20069;-75
2022/01/12 12:19:52;;;;;;;49.33;11.63;;;5.30;99.90;;;;;;5001094;28;20046;-74
2022/01/12 12:22:20;;;;;;;39.45;10.63;;;5.30;99.90;;;;;;4993469;28;20046;-75
2022/01/12 12:24:53;;;;;;;39.00;10.20;;;5.40;99.90;;;;;;4983728;28;20402;-74
2022/01/12 12:27:21;;;;;;;50.45;10.82;;;5.20;99.90;;;;;;4978562;28;20113;-75
2022/01/12 12:29:48;;;;;;;45.42;12.95;;;5.20;99.90;;;;;;4992969;28;20205;-75
2022/01/12 12:32:16;;;;;;;55.28;11.10;;;5.20;99.90;;;;;;4974561;28;20042;-75
2022/01/12 12:34:43;;;;;;;51.40;11.38;;;5.30;99.90;;;;;;4997431;28;20053;-76
2022/01/12 12:37:11;;;;;;;46.90;11.38;;;5.30;99.90;;;;;;5013637;28;20039;-75
2022/01/12 12:39:39;;;;;;;51.38;11.38;;;5.30;99.90;;;;;;5019744;28;20557;-75
2022/01/12 12:42:14;;;;;;;33.00;8.93;;;5.30;99.90;;;;;;4975433;28;20070;-70
2022/01/12 12:44:39;;;;;;;44.15;11.27;;;5.20;99.90;;;;;;4976287;28;20049;-80
2022/01/12 12:47:07;;;;;;;39.60;10.52;;;5.30;99.90;;;;;;4987815;28;20417;-81
2022/01/12 12:49:54;;;;;;;44.53;11.93;;;5.30;99.90;;;;;;4977585;28;20134;-79
2022/01/12 12:52:33;;;;;;;36.78;12.13;;;5.40;99.90;;;;;;4994053;28;20055;-80
2022/01/12 12:55:02;;;;;;;34.55;12.20;;;5.40;99.90;;;;;;4977805;28;20042;-82
2022/01/12 12:57:28;;;;;;;42.92;12.57;;;5.40;99.90;;;;;;4986651;28;20045;-76
2022/01/12 13:00:12;;;;;;;39.53;12.25;;;5.40;99.90;;;;;;4984351;28;20051;-81
2022/01/12 13:02:41;;;;;;;47.97;13.82;;;5.40;99.90;;;;;;4983300;28;20061;-82
2022/01/12 13:05:10;;;;;;;37.58;13.10;;;5.50;99.90;;;;;;4978029;28;20104;-82
2022/01/12 13:07:41;;;;;;;39.58;13.43;;;5.50;99.90;;;;;;4985520;28;20085;-82
2022/01/12 13:10:14;;;;;;;50.75;15.68;;;5.60;99.90;;;;;;4979132;28;20066;-82
2022/01/12 13:13:01;;;;;;;49.58;14.77;;;5.60;99.90;;;;;;4979197;28;20053;-82
2022/01/12 13:15:30;;;;;;;45.53;14.93;;;5.60;99.90;;;;;;4982598;28;20045;-82
2022/01/12 13:18:19;;;;;;;48.45;14.95;;;5.60;99.90;;;;;;4976489;28;20054;-83
2022/01/12 13:21:09;;;;;;;47.00;14.00;;;5.70;99.90;;;;;;4976213;28;20059;-82
2022/01/12 13:23:44;;;;;;;42.33;13.30;;;5.70;99.90;;;;;;5004747;28;20093;-81
2022/01/12 13:26:13;;;;;;;52.63;14.48;;;5.70;99.90;;;;;;4996490;28;20121;-80
2022/01/12 13:28:40;;;;;;;43.38;15.73;;;5.80;99.90;;;;;;4982887;28;20098;-80
2022/01/12 13:31:09;;;;;;;48.90;13.30;;;5.70;99.90;;;;;;4992108;28;20127;-79
2022/01/12 13:33:50;;;;;;;38.17;12.38;;;5.80;99.90;;;;;;4976918;28;20130;-79
2022/01/12 13:36:19;;;;;;;38.72;12.32;;;5.70;99.90;;;;;;4974786;28;20051;-79
2022/01/12 13:39:00;;;;;;;34.95;12.35;;;5.60;99.90;;;;;;4996081;28;20184;-79
2022/01/12 13:41:28;;;;;;;39.38;12.63;;;5.60;99.90;;;;;;5014203;28;20142;-80
2022/01/12 13:44:10;;;;;;;35.08;11.38;;;5.60;99.90;;;;;;5014135;28;20484;-79
2022/01/12 13:46:39;;;;;;;33.50;12.25;;;5.60;99.90;;;;;;4972895;28;20516;-78
2022/01/12 13:49:21;;;;;;;31.48;10.52;;;5.50;99.90;;;;;;4973460;28;20122;-79
2022/01/12 13:51:58;;;;;;;35.08;12.27;;;5.50;99.90;;;;;;4974778;28;20104;-78